Latest Weather Observations for Davis*

IDT60801

Issued at 7:31 am EDT Saturday 28 March 2015 (issued every 30 minutes, with the page automatically refreshed every 10 minutes)

About weather observations | Map of weather stations | Latest weather observations for ANT | Other Formats
Station Details ID: 300000 Name: DAVIS Lat: -68.57 Lon: 77.97 Height: 18.0 m
Data from the previous 72 hours. | See also: Recent months at Davis*
Date/Time
EDT
Temp
°C
App
Temp
°C
Dew
Point
Rel
Hum
%
Delta-T
°C
Wind Press
QNH
hPa
Press
MSL
hPa
Rain
since 9 am
mm
Dir
 
Spd
km/h
Gust
km/h
Spd
kts
Gust
kts
28/07:30am -16.9 -23.4 -23.4 57 - ESE 15 19 8 10 982.8 - -
28/07:00am -16.8 -23.4 -23.7 55 - SE 15 17 8 9 982.8 - -
28/06:30am -17.0 -23.2 -24.5 52 - ESE 13 17 7 9 982.8 - -
28/06:00am -16.6 -22.4 -24.5 50 - ESE 11 17 6 9 982.8 - -
28/05:30am -16.4 -23.0 -25.0 47 - ESE 15 20 8 11 982.7 - -
28/05:00am -15.9 -22.5 -24.3 48 - E 15 19 8 10 982.6 982.8 -
28/04:30am -16.0 -21.8 -24.2 49 - E 11 13 6 7 982.6 - -
28/04:00am -15.9 -22.5 -24.1 49 - ESE 15 19 8 10 982.4 - -
28/03:30am -15.6 -21.4 -23.8 49 - ESE 11 15 6 8 982.4 - -
28/03:00am -15.7 -22.3 -24.2 48 - E 15 17 8 9 982.2 - -
28/02:30am -15.1 -22.4 -24.3 45 - E 19 20 10 11 982.3 - -
28/02:00am -14.3 -20.9 -24.4 42 - ENE 15 19 8 10 982.2 982.4 -
28/01:30am -14.5 -20.3 -23.8 45 - E 11 15 6 8 982.2 - -
28/01:00am -13.8 -20.3 -23.6 43 - ENE 15 19 8 10 982.1 - -
28/12:30am -14.0 -20.9 -22.8 47 - ESE 17 20 9 11 982.1 - -
28/12:00am -13.3 -19.8 -21.9 48 - ESE 15 20 8 11 982.0 - -
 
Date/Time
EDT
Temp
°C
App
Temp
°C
Dew
Point
Rel
Hum
%
Delta-T
°C
Wind Press
QNH
hPa
Press
MSL
hPa
Rain
since 9 am
mm
Dir
 
Spd
km/h
Gust
km/h
Spd
kts
Gust
kts
27/11:30pm -12.9 -19.0 -21.1 50 - SE 13 19 7 10 981.7 - -
27/11:00pm -12.0 -17.8 -22.5 41 - N 11 26 6 14 981.5 981.7 -
27/10:30pm -12.0 -20.2 -21.0 47 - N 24 28 13 15 981.6 - -
27/10:00pm -11.8 -20.8 -22.1 42 - N 28 35 15 19 981.2 - -
27/09:30pm -11.7 -18.2 -21.7 43 - N 15 19 8 10 981.6 - -
27/09:00pm -11.7 -19.2 -22.3 41 - NNE 20 28 11 15 981.2 - -
27/08:30pm -11.3 -19.1 -21.1 44 - N 22 30 12 16 981.1 - -
27/08:00pm -11.5 -18.0 -22.6 39 - NNE 15 26 8 14 981.0 981.2 -
27/07:30pm -11.6 -19.1 -22.2 41 - N 20 30 11 16 980.9 - -
27/07:00pm -11.0 -18.4 -21.6 41 - NNE 20 26 11 14 980.7 - -
27/06:30pm -11.3 -19.8 -19.9 49 - NNE 26 35 14 19 980.6 - -
27/06:00pm -11.2 -18.7 -22.1 40 - NE 20 30 11 16 980.6 - -
27/05:30pm -11.7 -20.7 -21.5 44 - N 28 37 15 20 980.4 - -
27/05:00pm -11.2 -20.5 -19.8 49 - NNE 30 35 16 19 980.4 980.6 -
27/04:30pm -11.8 -20.0 -23.2 38 - NNE 24 32 13 17 980.3 - -
27/04:00pm -11.7 -19.5 -22.5 40 - NNE 22 28 12 15 980.0 - -
27/03:30pm -11.7 -18.2 -22.5 40 - E 15 19 8 10 979.8 - -
27/03:00pm -12.1 -20.2 -19.7 53 - NNE 24 32 13 17 979.4 - -
27/02:30pm -12.4 -19.8 -21.3 47 - NE 20 28 11 15 979.2 - -
27/02:00pm -12.4 -21.3 -21.1 48 - NE 28 39 15 21 978.8 979.0 -
27/01:30pm -12.8 -21.8 -21.5 48 - NE 28 35 15 19 978.7 - -
27/01:00pm -12.6 -21.1 -19.3 57 - NNE 26 35 14 19 978.3 - -
27/12:30pm -12.6 -21.5 -19.9 54 - NE 28 33 15 18 978.1 - -
27/12:00pm -12.1 -20.9 -18.1 61 - NNE 28 39 15 21 977.7 - -
27/11:30am -12.5 -22.1 -17.7 65 - NNE 32 41 17 22 977.6 - -
27/11:00am -12.3 -21.1 -17.9 63 - NNE 28 41 15 22 977.3 977.5 -
27/10:30am -12.2 -22.3 -17.2 66 - NNE 35 43 19 23 977.1 - -
27/10:00am -12.1 -20.5 -16.6 69 - NNE 26 33 14 18 976.9 - -
27/09:30am -11.8 -21.5 -17.2 64 - NNE 33 43 18 23 976.6 - -
27/09:00am -11.6 -21.2 -17.8 60 - NE 32 41 17 22 976.2 - -
27/08:30am -11.5 -20.7 -17.9 59 - NE 30 37 16 20 975.9 - -
27/08:22am -11.4 -21.0 -18.2 57 - NE 32 50 17 27 975.9 - -
27/08:00am -11.3 -20.9 -19.2 52 - NE 32 41 17 22 975.4 975.6 -
27/07:30am -11.3 -21.1 -18.3 56 - NNE 33 43 18 23 975.2 - -
27/07:00am -11.3 -21.1 -17.7 59 - NE 33 43 18 23 974.9 - -
27/06:30am -11.1 -21.2 -16.7 63 - NE 35 44 19 24 974.5 - -
27/06:00am -10.8 -20.9 -17.2 59 - NE 35 50 19 27 974.1 - -
27/05:30am -10.7 -20.8 -16.9 60 - NE 35 46 19 25 973.9 - -
27/05:00am -10.6 -20.3 -15.7 66 - NNE 33 46 18 25 973.5 973.7 -
27/04:30am -10.5 -21.3 -15.6 66 - NNE 39 50 21 27 973.0 - -
27/04:00am -10.4 -20.5 -15.7 65 - NNE 35 46 19 25 972.9 - -
27/03:30am -10.1 -19.8 -16.2 61 - NE 33 43 18 23 972.6 - -
27/03:00am -10.1 -19.8 -15.8 63 - NE 33 44 18 24 972.4 - -
27/02:30am -10.0 -19.7 -16.1 61 - NE 33 46 18 25 972.3 - -
27/02:00am -9.8 -19.3 -16.1 60 - NE 32 37 17 20 972.0 972.2 -
27/01:30am -9.7 -19.2 -16.2 59 - NE 32 43 17 23 971.7 - -
27/01:00am -9.8 -19.5 -15.7 62 - NE 33 43 18 23 971.5 - -
27/12:30am -9.5 -19.1 -15.0 64 - NE 33 43 18 23 971.2 - -
27/12:00am -9.2 -18.2 -14.2 67 - NE 30 41 16 22 971.0 - -
 
Date/Time
EDT
Temp
°C
App
Temp
°C
Dew
Point
Rel
Hum
%
Delta-T
°C
Wind Press
QNH
hPa
Press
MSL
hPa
Rain
since 9 am
mm
Dir
 
Spd
km/h
Gust
km/h
Spd
kts
Gust
kts
26/11:30pm -9.1 -18.1 -14.4 65 - NE 30 39 16 21 970.8 - -
26/11:00pm -8.8 -18.2 -14.2 65 - NE 32 39 17 21 970.6 970.8 -
26/10:30pm -8.9 -18.5 -14.4 64 - NE 33 43 18 23 970.2 - -
26/10:00pm -8.6 -18.6 -14.5 62 - NE 35 50 19 27 969.8 - -
26/09:30pm -8.5 -18.4 -13.7 66 - NE 35 48 19 26 969.7 - -
26/09:00pm -8.1 -18.0 -13.5 65 - NE 35 43 19 23 969.4 - -
26/08:30pm -8.1 -17.6 -12.1 73 - NNE 33 44 18 24 969.1 - -
26/08:00pm -8.0 -18.2 -11.5 76 - NE 37 48 20 26 968.9 969.1 -
26/07:30pm -7.7 -17.9 -11.5 74 - NE 37 50 20 27 968.6 - -
26/07:00pm -7.5 -17.3 -11.7 72 - NE 35 44 19 24 968.4 - -
26/06:30pm -7.3 -17.1 -11.1 74 - NE 35 44 19 24 968.1 - -
26/06:00pm -7.1 -17.3 -11.3 72 - NE 37 52 20 28 967.8 - -
26/05:30pm -7.2 -17.7 -10.9 75 - NE 39 52 21 28 967.5 - -
26/05:00pm -7.3 -17.8 -10.8 76 - NE 39 50 21 27 967.2 967.4 -
26/04:30pm -7.1 -18.4 -10.4 77 - NNE 43 54 23 29 966.8 - -
26/04:10pm -7.1 -16.8 -10.6 76 - NNE 35 54 19 29 966.6 - -
26/04:00pm -7.1 -18.0 -10.6 76 - NE 41 52 22 28 966.6 - -
26/03:30pm -7.2 -17.3 -10.2 79 - NNE 37 48 20 26 966.4 - -
26/03:00pm -7.2 -17.7 -10.4 78 - NNE 39 52 21 28 966.3 - -
26/02:30pm -7.0 -18.8 -10.7 75 - NNE 46 59 25 32 965.7 - -
26/02:00pm -7.0 -18.5 -10.8 74 - NNE 44 63 24 34 965.5 965.7 -
26/01:59pm -6.9 -18.4 -10.7 74 - NNE 44 63 24 34 965.5 - -
26/01:30pm -6.9 -17.8 -10.6 75 - NNE 41 52 22 28 965.4 - -
26/01:00pm -6.8 -16.5 -10.5 75 - NNE 35 46 19 25 965.3 - -
26/12:30pm -6.6 -17.1 -10.8 72 - NE 39 52 21 28 964.9 - -
26/12:00pm -6.4 -16.5 -10.9 70 - NNE 37 52 20 28 964.6 - -
26/11:30am -6.2 -16.4 -11.1 68 - NE 37 50 20 27 964.6 - -
26/11:00am -6.0 -15.8 -11.3 66 - NE 35 52 19 28 964.3 964.5 -
26/10:30am -6.1 -15.9 -11.0 68 - NE 35 48 19 26 964.2 - -
26/10:00am -6.0 -16.5 -10.9 68 - NE 39 54 21 29 963.9 - -
26/09:30am -5.9 -16.4 -11.0 67 - NE 39 54 21 29 963.5 - -
26/09:00am -5.7 -16.7 -11.8 62 - NE 41 50 22 27 963.3 - -
26/08:30am -5.6 -15.4 -11.3 64 - NE 35 50 19 27 963.2 - -
26/08:00am -5.4 -15.6 -11.5 62 - NE 37 52 20 28 963.1 963.3 -
26/07:30am -5.3 -14.5 -10.8 65 - NE 32 44 17 24 963.2 - -
26/07:00am -5.2 -15.4 -11.1 63 - NE 37 46 20 25 963.0 - -
26/06:30am -5.2 -16.7 -10.7 65 - NE 44 57 24 31 962.4 - -
26/06:00am -5.3 -16.2 -10.6 66 - NE 41 57 22 31 962.4 - -
26/05:30am -5.4 -17.2 -10.7 66 - NE 46 57 25 31 962.0 - -
26/05:15am -5.4 -16.9 -10.7 66 - NNE 44 63 24 34 961.8 - -
26/05:00am -5.2 -16.7 -11.3 62 - NE 44 61 24 33 961.9 962.1 -
26/04:30am -5.4 -17.3 -11.5 62 - NE 46 59 25 32 961.8 - -
26/04:07am -5.4 -18.1 -11.5 62 - NNE 50 69 27 37 961.8 - -
26/04:00am -5.3 -18.3 -11.6 61 - NNE 52 69 28 37 961.6 - -
26/03:30am -5.2 -19.0 -11.7 60 - NE 56 74 30 40 961.4 - -
26/03:00am -5.3 -19.3 -11.8 60 - NE 57 76 31 41 961.3 - -
26/02:30am -4.9 -18.3 -11.4 60 - NE 54 72 29 39 961.3 - -
26/02:14am -4.7 -17.3 -11.0 61 - NNE 50 69 27 37 961.3 - -
26/02:00am -4.8 -17.8 -10.7 63 - NNE 52 65 28 35 961.3 961.5 -
26/01:30am -4.9 -17.9 -10.6 64 - NE 52 67 28 36 961.2 - -
26/01:04am -4.8 -17.4 -10.5 64 - NNE 50 69 27 37 961.2 - -
26/01:00am -4.8 -17.4 -10.5 64 - NNE 50 65 27 35 961.2 - -
26/12:30am -4.5 -17.1 -10.5 63 - NE 50 65 27 35 961.3 - -
26/12:15am -4.6 -16.8 -10.2 65 - NE 48 69 26 37 961.1 - -
26/12:00am -4.6 -17.6 -10.4 64 - NE 52 65 28 35 961.3 - -
 
Date/Time
EDT
Temp
°C
App
Temp
°C
Dew
Point
Rel
Hum
%
Delta-T
°C
Wind Press
QNH
hPa
Press
MSL
hPa
Rain
since 9 am
mm
Dir
 
Spd
km/h
Gust
km/h
Spd
kts
Gust
kts
25/11:30pm -4.5 -17.4 -10.1 65 - NNE 52 74 28 40 961.3 - -
25/11:21pm -4.6 -16.0 -10.0 66 - NNE 44 74 24 40 961.4 - -
25/11:00pm -4.6 -17.5 -10.0 66 - NNE 52 69 28 37 961.2 961.4 -
25/10:30pm -4.4 -16.2 -10.4 63 - NE 46 65 25 35 961.5 - -
25/10:00pm -4.4 -16.6 -10.0 65 - NE 48 63 26 34 961.3 - -
25/09:30pm -4.3 -16.9 -10.1 64 - NE 50 69 27 37 961.2 - -
25/09:05pm -4.2 -16.8 -10.0 64 - NE 50 69 27 37 961.2 - -
25/09:00pm -4.3 -16.5 -10.1 64 - NE 48 61 26 33 961.2 - -
25/08:35pm -3.9 -15.1 -9.7 64 - NE 43 61 23 33 961.3 - -
25/08:30pm -4.1 -15.5 -9.7 65 - NE 44 57 24 31 961.3 - -
25/08:00pm -3.8 -15.6 -9.8 63 - NE 46 65 25 35 961.4 961.6 -
25/07:51pm -3.6 -14.8 -10.2 60 - NE 43 65 23 35 961.4 - -
25/07:30pm -3.6 -12.7 -10.2 60 - NE 32 43 17 23 961.6 - -
25/07:00pm -3.5 -12.7 -10.3 59 - ENE 32 59 17 32 961.7 - -
25/06:45pm -3.8 -12.2 -10.0 62 - NE 28 46 15 25 961.9 - -
25/06:30pm -3.9 -14.0 -10.3 61 - ENE 37 46 20 25 961.7 - -
25/06:00pm -3.9 -14.0 -10.5 60 - ENE 37 52 20 28 961.5 - -
25/05:30pm -3.9 -13.6 -10.3 61 - ENE 35 57 19 31 961.6 - -
25/05:24pm -4.0 -14.1 -10.4 61 - ENE 37 57 20 31 961.5 - -
25/05:00pm -4.4 -16.3 -10.8 61 - ENE 46 59 25 32 961.1 961.3 -
25/04:49pm -4.4 -15.9 -10.8 61 - ENE 44 63 24 34 961.3 - -
25/04:30pm -4.5 -16.7 -10.9 61 - NE 48 59 26 32 961.2 - -
25/04:00pm -4.7 -16.0 -10.8 62 - ENE 43 61 23 33 961.4 - -
25/03:30pm -4.7 -15.2 -10.8 62 - ENE 39 52 21 28 961.6 - -
25/03:00pm -4.8 -14.9 -10.2 66 - ENE 37 48 20 26 961.7 - -
25/02:30pm -4.5 -13.3 -10.1 65 - ENE 30 46 16 25 961.7 - -
25/02:03pm -4.7 -14.4 -10.3 65 - ENE 35 54 19 29 961.5 - -
25/02:00pm -4.9 -15.4 -10.3 66 - ENE 39 54 21 29 961.6 961.8 -
25/01:30pm -5.0 -16.4 -10.3 66 - ENE 44 57 24 31 961.3 - -
25/01:20pm -5.0 -17.2 -10.2 67 - ENE 48 67 26 36 961.0 - -
25/01:00pm -5.4 -15.8 -9.8 71 - ENE 39 50 21 27 961.2 - -
25/12:34pm -5.1 -16.9 -10.1 68 - ENE 46 65 25 35 961.0 - -
25/12:30pm -5.1 -16.5 -10.1 68 - ENE 44 59 24 32 961.1 - -
25/12:00pm -4.7 -15.5 -9.3 70 - ENE 41 54 22 29 960.8 - -

Other Formats:

Comma delimited format used in spreadsheet applications
http://www.bom.gov.au/fwo/IDT60803/IDT60803.89571.axf

JavaScript Object Notation format (JSON) in row-major order
http://www.bom.gov.au/fwo/IDT60803/IDT60803.89571.json